createdAt,value
2024-04-25T00:02:20.016Z,100933.58
2024-04-25T00:05:09.601Z,100924.78
2024-04-25T00:07:59.160Z,100919.42
2024-04-25T00:10:52.067Z,100918.05
2024-04-25T00:13:41.571Z,100915.05
2024-04-25T00:16:31.165Z,100915.33
2024-04-25T00:19:20.668Z,100910.61
2024-04-25T00:22:10.160Z,100905.23
2024-04-25T00:24:59.727Z,100898.60
2024-04-25T00:27:49.471Z,100894.84
2024-04-25T00:30:38.957Z,100890.73
2024-04-25T00:33:28.678Z,100883.66
2024-04-25T00:36:18.328Z,100876.80
2024-04-25T00:39:07.866Z,100871.19
2024-04-25T00:41:57.322Z,100865.57
2024-04-25T00:44:47.083Z,100863.20
2024-04-25T00:47:38.936Z,100859.08
2024-04-25T00:50:29.540Z,100857.94
2024-04-25T00:53:18.817Z,100857.48
2024-04-25T00:56:09.227Z,100857.06
2024-04-25T00:59:00.703Z,100851.45
2024-04-25T01:01:51.695Z,100845.09
2024-04-25T01:04:42.760Z,100840.84
2024-04-25T01:07:32.223Z,100839.97
2024-04-25T01:10:21.855Z,100837.20
2024-04-25T01:13:11.875Z,100830.19
2024-04-25T01:16:02.271Z,100825.78
2024-04-25T01:18:51.531Z,100821.31
2024-04-25T01:21:41.108Z,100819.49
2024-04-25T01:24:34.531Z,100812.80
2024-04-25T01:27:24.896Z,100808.77
2024-04-25T01:30:15.050Z,100803.83
2024-04-25T01:33:06.035Z,100799.20
2024-04-25T01:35:56.426Z,100797.73
2024-04-25T01:38:45.935Z,100793.81
2024-04-25T01:41:35.594Z,100789.70
2024-04-25T01:44:25.226Z,100784.83
2024-04-25T01:47:14.952Z,100783.52
2024-04-25T01:50:05.052Z,100780.94
2024-04-25T01:52:55.214Z,100772.84
2024-04-25T01:55:44.802Z,100765.89
2024-04-25T01:58:34.361Z,100761.71
2024-04-25T02:01:23.806Z,100757.61
2024-04-25T02:04:13.425Z,100756.91
2024-04-25T02:07:03.931Z,100756.73
2024-04-25T02:09:52.590Z,100752.81
2024-04-25T02:12:42.200Z,100746.71
2024-04-25T02:15:31.770Z,100747.51
2024-04-25T02:18:21.441Z,100748.31
2024-04-25T02:21:29.063Z,100748.38
2024-04-25T02:24:33.084Z,100741.11
2024-04-25T02:27:22.877Z,100740.38
2024-04-25T02:30:12.546Z,100738.08
2024-04-25T02:33:02.114Z,100731.00
2024-04-25T02:35:51.792Z,100722.14
2024-04-25T02:38:41.406Z,100714.83
2024-04-25T02:41:30.890Z,100710.39
2024-04-25T02:44:20.456Z,100703.27
2024-04-25T02:47:10.060Z,100696.86
2024-04-25T02:50:06.169Z,100696.73
2024-04-25T02:52:55.943Z,100697.34
2024-04-25T02:55:45.623Z,100694.98
2024-04-25T02:58:34.972Z,100689.88
2024-04-25T03:01:24.609Z,100688.73
2024-04-25T03:04:14.207Z,100684.77
2024-04-25T03:07:04.935Z,100678.98
2024-04-25T03:09:55.419Z,100675.45
2024-04-25T03:12:45.231Z,100671.52
2024-04-25T03:15:34.993Z,100671.11
2024-04-25T03:18:24.822Z,100673.52
2024-04-25T03:21:14.463Z,100670.90
2024-04-25T03:24:04.280Z,100664.61
2024-04-25T03:26:54.260Z,100663.98
2024-04-25T03:29:43.832Z,100661.14
2024-04-25T03:32:33.839Z,100657.77
2024-04-25T03:35:23.471Z,100650.70
2024-04-25T03:38:13.057Z,100648.70
2024-04-25T03:41:07.415Z,100647.40
2024-04-25T03:44:19.367Z,100643.48
2024-04-25T03:47:09.169Z,100636.05
2024-04-25T03:49:59.020Z,100631.70
2024-04-25T03:52:48.561Z,100629.23
2024-04-25T03:55:38.128Z,100628.33
2024-04-25T03:58:27.560Z,100626.14
2024-04-25T04:01:17.884Z,100617.42
2024-04-25T04:04:07.369Z,100614.95
2024-04-25T04:06:56.903Z,100610.44
2024-04-25T04:09:46.557Z,100606.22
2024-04-25T04:12:42.031Z,100606.05
2024-04-25T04:15:31.548Z,100605.23
2024-04-25T04:18:21.198Z,100599.95
2024-04-25T04:21:14.206Z,100594.16
2024-04-25T04:24:04.131Z,100589.80
2024-04-25T04:26:55.934Z,100586.70
2024-04-25T04:29:45.505Z,100589.73
2024-04-25T04:32:35.336Z,100586.42
2024-04-25T04:35:24.963Z,100585.18
2024-04-25T04:38:14.729Z,100582.77
2024-04-25T04:41:04.615Z,100583.01
2024-04-25T04:43:54.315Z,100576.10
2024-04-25T04:46:44.188Z,100559.90
2024-04-25T04:49:33.759Z,100550.52
2024-04-25T04:52:24.040Z,100549.52
2024-04-25T04:55:14.306Z,100542.39
2024-04-25T04:58:08.008Z,100536.45
2024-04-25T05:00:59.311Z,100529.50
2024-04-25T05:03:49.039Z,100525.86
2024-04-25T05:06:38.546Z,100520.27
2024-04-25T05:09:30.695Z,100521.73
2024-04-25T05:12:20.708Z,100524.19
2024-04-25T05:15:11.246Z,100517.58
2024-04-25T05:18:00.925Z,100511.70
2024-04-25T05:20:57.488Z,100514.35
2024-04-25T05:23:48.921Z,100523.77
2024-04-25T05:26:38.742Z,100528.27
2024-04-25T05:29:29.642Z,100525.19
2024-04-25T05:32:24.113Z,100526.20
2024-04-25T05:35:19.473Z,100524.52
2024-04-25T05:39:16.307Z,100520.98
2024-04-25T05:42:25.887Z,100521.19
2024-04-25T05:45:31.046Z,100517.65
2024-04-25T05:51:52.008Z,100508.07
2024-04-25T05:54:41.915Z,100508.17
2024-04-25T05:57:34.059Z,100505.88
2024-04-25T06:00:29.224Z,100503.34
2024-04-25T06:03:19.763Z,100492.33
2024-04-25T06:06:09.403Z,100490.80
2024-04-25T06:09:02.607Z,100491.91
2024-04-25T06:12:02.844Z,100488.48
2024-04-25T06:14:56.359Z,100482.31
2024-04-25T06:18:32.634Z,100483.20
2024-04-25T06:25:46.255Z,100478.16
2024-04-25T06:29:12.953Z,100473.95
2024-04-25T06:32:27.141Z,100468.89
2024-04-25T06:35:26.233Z,100466.86
2024-04-25T06:38:19.320Z,100459.05
2024-04-25T06:41:09.182Z,100442.48
2024-04-25T06:44:02.938Z,100434.92
2024-04-25T06:46:57.182Z,100432.56
2024-04-25T06:49:47.115Z,100430.88
2024-04-25T06:52:36.799Z,100427.86
2024-04-25T06:55:29.023Z,100425.08
2024-04-25T06:58:20.274Z,100425.27
2024-04-25T07:01:10.231Z,100422.97
2024-04-25T07:04:00.339Z,100418.91
2024-04-25T07:06:49.914Z,100419.67
2024-04-25T07:09:39.502Z,100420.88
2024-04-25T07:12:36.021Z,100414.08
2024-04-25T07:15:27.422Z,100416.74
2024-04-25T07:18:15.801Z,100414.15
2024-04-25T07:21:06.161Z,100414.58
2024-04-25T07:23:56.926Z,100411.31
2024-04-25T07:26:47.256Z,100408.73
2024-04-25T07:29:46.195Z,100402.63
2024-04-25T07:32:35.682Z,100396.52
2024-04-25T07:35:25.475Z,100386.13
2024-04-25T07:38:15.320Z,100368.86
2024-04-25T07:41:05.630Z,100365.02
2024-04-25T07:43:58.223Z,100352.70
2024-04-25T07:46:48.147Z,100348.50
2024-04-25T07:49:40.712Z,100340.52
2024-04-25T07:52:30.544Z,100334.58
2024-04-25T07:55:20.170Z,100328.80
2024-04-25T07:58:09.771Z,100331.11
2024-04-25T08:00:59.441Z,100324.71
2024-04-25T08:03:50.656Z,100322.58
2024-04-25T08:06:40.479Z,100319.36
2024-04-25T08:09:31.514Z,100316.56
2024-04-25T08:12:27.158Z,100313.42
2024-04-25T08:15:16.837Z,100309.09
2024-04-25T08:18:07.115Z,100304.38
2024-04-25T08:20:57.383Z,100300.17
2024-04-25T08:23:47.293Z,100298.73
2024-04-25T08:26:36.097Z,100291.73
2024-04-25T08:29:26.547Z,100291.98
2024-04-25T08:32:21.272Z,100291.06
2024-04-25T08:35:12.673Z,100281.15
2024-04-25T08:38:03.032Z,100275.89
2024-04-25T08:40:52.644Z,100277.55
2024-04-25T08:43:44.350Z,100280.23
2024-04-25T08:46:34.982Z,100271.04
2024-04-25T08:49:27.955Z,100269.32
2024-04-25T08:52:20.467Z,100269.31
2024-04-25T08:55:12.141Z,100264.38
2024-04-25T08:58:01.808Z,100266.43
2024-04-25T09:00:54.015Z,100260.96
2024-04-25T09:03:46.325Z,100259.33
2024-04-25T09:06:36.784Z,100253.36
2024-04-25T09:09:28.685Z,100249.68
2024-04-25T09:12:18.386Z,100248.58
2024-04-25T09:15:08.829Z,100248.13
2024-04-25T09:18:09.460Z,100249.61
2024-04-25T09:21:00.350Z,100242.96
2024-04-25T09:23:50.188Z,100242.65
2024-04-25T09:26:41.167Z,100233.83
2024-04-25T09:29:32.732Z,100229.05
2024-04-25T09:32:22.389Z,100218.98
2024-04-25T09:35:13.260Z,100212.73
2024-04-25T09:38:03.180Z,100210.67
2024-04-25T09:40:53.624Z,100214.16
2024-04-25T09:43:43.810Z,100216.48
2024-04-25T09:46:33.817Z,100219.79
2024-04-25T09:49:24.599Z,100219.30
2024-04-25T09:52:19.809Z,100222.55
2024-04-25T09:55:15.396Z,100221.55
2024-04-25T09:58:06.244Z,100222.50
2024-04-25T10:00:56.446Z,100221.98
2024-04-25T10:03:46.844Z,100216.42
2024-04-25T10:06:38.100Z,100206.98
2024-04-25T10:09:31.760Z,100200.20
2024-04-25T10:12:25.575Z,100184.59
2024-04-25T10:15:14.771Z,100176.66
2024-04-25T10:18:08.641Z,100170.97
2024-04-25T10:21:02.107Z,100165.90
2024-04-25T10:24:04.477Z,100159.70
2024-04-25T10:26:53.760Z,100156.67
2024-04-25T10:29:50.237Z,100159.09
2024-04-25T10:32:39.930Z,100154.38
2024-04-25T10:35:37.700Z,100158.83
2024-04-25T10:38:27.354Z,100167.59
2024-04-25T10:41:16.038Z,100165.52
2024-04-25T10:44:06.086Z,100172.98
2024-04-25T10:46:54.790Z,100162.89
2024-04-25T10:49:44.544Z,100158.73
2024-04-25T10:52:34.416Z,100154.72
2024-04-25T10:55:24.226Z,100149.88
2024-04-25T10:58:14.646Z,100148.75
2024-04-25T11:01:05.468Z,100146.20
2024-04-25T11:03:56.090Z,100145.79
2024-04-25T11:06:46.953Z,100144.37
2024-04-25T11:09:37.228Z,100146.42
2024-04-25T11:12:27.460Z,100147.70
2024-04-25T11:15:18.394Z,100146.05
2024-04-25T11:18:13.513Z,100148.84
2024-04-25T11:21:08.751Z,100151.71
2024-04-25T11:23:58.930Z,100151.36
2024-04-25T11:26:49.566Z,100153.81
2024-04-25T11:29:40.904Z,100153.02
2024-04-25T11:32:34.852Z,100150.27
2024-04-25T11:35:28.337Z,100147.44
2024-04-25T11:38:18.387Z,100148.58
2024-04-25T11:41:08.033Z,100138.36
2024-04-25T11:43:57.767Z,100139.31
2024-04-25T11:46:48.055Z,100140.43
2024-04-25T11:49:37.874Z,100136.50
2024-04-25T11:52:27.660Z,100135.52
2024-04-25T11:55:17.364Z,100135.42
2024-04-25T11:58:08.252Z,100133.19
2024-04-25T12:00:57.843Z,100133.46
2024-04-25T12:03:47.676Z,100130.31
2024-04-25T12:06:37.428Z,100123.33
2024-04-25T12:09:27.104Z,100121.34
2024-04-25T12:12:16.730Z,100119.36
2024-04-25T12:15:08.452Z,100115.44
2024-04-25T12:17:58.704Z,100111.30
2024-04-25T12:20:48.506Z,100111.23
2024-04-25T12:23:38.040Z,100111.39
2024-04-25T12:26:28.194Z,100107.95
2024-04-25T12:29:18.065Z,100107.86
2024-04-25T12:32:09.692Z,100105.21
2024-04-25T12:35:00.148Z,100105.83
2024-04-25T12:37:51.975Z,100103.29
2024-04-25T12:40:41.754Z,100105.75
2024-04-25T12:43:31.492Z,100104.64
2024-04-25T12:46:21.543Z,100099.80
2024-04-25T12:49:29.077Z,100095.56
2024-04-25T12:52:18.942Z,100095.30
2024-04-25T12:55:09.009Z,100089.31
2024-04-25T12:58:01.176Z,100088.33
2024-04-25T13:00:50.664Z,100082.30
2024-04-25T13:03:40.272Z,100081.65
2024-04-25T13:06:30.061Z,100082.27
2024-04-25T13:09:20.491Z,100073.23
2024-04-25T13:12:10.452Z,100071.33
2024-04-25T13:15:00.099Z,100068.64
2024-04-25T13:17:49.904Z,100067.71
2024-04-25T13:20:39.569Z,100067.02
2024-04-25T13:23:29.435Z,100069.42
2024-04-25T13:26:24.641Z,100063.75
2024-04-25T13:29:14.347Z,100061.86
2024-04-25T13:32:04.080Z,100068.62
2024-04-25T13:34:55.386Z,100067.80
2024-04-25T13:37:44.680Z,100067.17
2024-04-25T13:40:34.208Z,100067.65
2024-04-25T13:43:26.827Z,100069.57
2024-04-25T13:46:18.173Z,100070.52
2024-04-25T13:49:08.036Z,100069.98
2024-04-25T13:51:57.688Z,100070.77
2024-04-25T13:54:47.376Z,100073.84
2024-04-25T13:57:39.407Z,100075.13
2024-04-25T14:00:31.927Z,100071.95
2024-04-25T14:03:21.564Z,100075.94
2024-04-25T14:06:11.794Z,100078.61
2024-04-25T14:09:00.565Z,100080.89
2024-04-25T14:11:50.432Z,100084.23
2024-04-25T14:14:42.109Z,100079.38
2024-04-25T14:17:31.950Z,100080.43
2024-04-25T14:20:22.312Z,100078.02
2024-04-25T14:23:12.423Z,100073.27
2024-04-25T14:26:36.921Z,100077.44
2024-04-25T14:29:26.563Z,100085.30
2024-04-25T14:32:16.313Z,100081.92
2024-04-25T14:35:07.143Z,100081.14
2024-04-25T14:37:57.002Z,100082.42
2024-04-25T14:40:48.441Z,100084.38
2024-04-25T14:43:38.121Z,100083.37
2024-04-25T14:46:27.908Z,100079.59
2024-04-25T14:49:21.794Z,100071.67
2024-04-25T14:52:11.717Z,100068.48
2024-04-25T14:55:04.929Z,100064.27
2024-04-25T14:57:54.745Z,100059.28
2024-04-25T15:00:46.051Z,100058.91
2024-04-25T15:03:39.067Z,100057.37
2024-04-25T15:06:29.705Z,100054.67
2024-04-25T15:09:19.363Z,100054.87
2024-04-25T15:12:10.466Z,100053.98
2024-04-25T15:15:08.484Z,100056.40
2024-04-25T15:18:04.696Z,100060.25
2024-04-25T15:20:54.973Z,100057.42
2024-04-25T15:23:49.501Z,100058.65
2024-04-25T15:26:42.512Z,100057.54
2024-04-25T15:29:33.075Z,100051.29
2024-04-25T15:32:22.968Z,100054.81
2024-04-25T15:35:12.434Z,100052.88
2024-04-25T15:38:01.960Z,100047.27
2024-04-25T15:40:51.740Z,100039.77
2024-04-25T15:43:41.391Z,100033.19
2024-04-25T15:46:31.394Z,100031.58
2024-04-25T15:49:21.251Z,100031.51
2024-04-25T15:52:12.529Z,100029.36
2024-04-25T15:55:03.140Z,100031.89
2024-04-25T15:57:54.114Z,100028.98
2024-04-25T16:00:44.244Z,100022.41
2024-04-25T16:03:34.515Z,100020.50
2024-04-25T16:06:24.095Z,100018.71
2024-04-25T16:09:13.634Z,100013.17
2024-04-25T16:12:03.392Z,100012.84
2024-04-25T16:14:53.601Z,100008.23
2024-04-25T16:17:43.672Z,100005.76
2024-04-25T16:20:37.567Z,100010.98
2024-04-25T16:23:28.731Z,100009.16
2024-04-25T16:26:18.782Z,100009.17
2024-04-25T16:29:10.108Z,100010.00
2024-04-25T16:31:59.711Z,100005.34
2024-04-25T16:34:51.322Z,100006.38
2024-04-25T16:37:40.863Z,100010.30
2024-04-25T16:40:36.787Z,100014.11
2024-04-25T16:43:34.799Z,100019.34
2024-04-25T16:46:25.646Z,100023.13
2024-04-25T16:49:15.144Z,100023.52
2024-04-25T16:52:07.213Z,100021.20
2024-04-25T16:54:57.686Z,100024.33
2024-04-25T16:57:49.802Z,100023.14
2024-04-25T17:00:39.655Z,100021.13
2024-04-25T17:03:29.316Z,100021.84
2024-04-25T17:06:18.931Z,100025.16
2024-04-25T17:09:28.459Z,100025.73
2024-04-25T17:12:18.174Z,100024.19
2024-04-25T17:15:10.294Z,100022.70
2024-04-25T17:18:07.953Z,100024.45
2024-04-25T17:20:59.203Z,100028.26
2024-04-25T17:23:55.289Z,100027.93
2024-04-25T17:26:45.328Z,100022.96
2024-04-25T17:29:40.934Z,100022.44
2024-04-25T17:32:31.244Z,100024.20
2024-04-25T17:35:19.970Z,100028.93
2024-04-25T17:38:09.673Z,100030.80
2024-04-25T17:40:59.328Z,100033.35
2024-04-25T17:43:48.982Z,100030.60
2024-04-25T17:46:38.648Z,100033.98
2024-04-25T17:49:28.508Z,100034.44
2024-04-25T17:52:18.234Z,100035.77
2024-04-25T17:55:08.092Z,100037.71
2024-04-25T17:57:57.688Z,100039.66
2024-04-25T18:00:47.618Z,100037.02
2024-04-25T18:03:37.242Z,100039.21
2024-04-25T18:06:26.866Z,100037.20
2024-04-25T18:09:17.055Z,100037.28
2024-04-25T18:12:07.889Z,100037.95
2024-04-25T18:14:57.604Z,100035.88
2024-04-25T18:17:47.317Z,100033.41
2024-04-25T18:20:37.110Z,100036.54
2024-04-25T18:23:26.745Z,100035.70
2024-04-25T18:26:16.285Z,100033.77
2024-04-25T18:29:05.732Z,100034.48
2024-04-25T18:31:55.379Z,100034.84
2024-04-25T18:34:45.093Z,100034.71
2024-04-25T18:37:36.152Z,100037.02
2024-04-25T18:40:25.440Z,100035.94
2024-04-25T18:43:16.581Z,100031.50
2024-04-25T18:46:06.481Z,100032.94
2024-04-25T18:48:59.291Z,100032.38
2024-04-25T18:51:49.297Z,100028.73
2024-04-25T18:54:39.265Z,100025.23
2024-04-25T18:57:29.478Z,100032.50
2024-04-25T19:00:19.601Z,100031.84
2024-04-25T19:03:09.757Z,100033.34
2024-04-25T19:05:59.503Z,100030.46
2024-04-25T19:08:49.121Z,100029.09
2024-04-25T19:11:41.244Z,100030.17
2024-04-25T19:14:31.058Z,100030.40
2024-04-25T19:17:22.789Z,100030.49
2024-04-25T19:20:14.027Z,100027.25
2024-04-25T19:23:03.683Z,100025.18
2024-04-25T19:25:54.146Z,100025.54
2024-04-25T19:28:44.441Z,100029.27
2024-04-25T19:31:40.986Z,100032.55
2024-04-25T19:34:30.470Z,100034.55
2024-04-25T19:37:20.117Z,100034.83
2024-04-25T19:40:11.518Z,100035.77
2024-04-25T19:43:01.217Z,100031.95
2024-04-25T19:45:50.773Z,100029.94
2024-04-25T19:48:40.732Z,100030.88
2024-04-25T19:51:30.416Z,100033.61
2024-04-25T19:54:23.108Z,100036.52
2024-04-25T19:57:12.872Z,100037.94
2024-04-25T20:00:02.634Z,100038.67
2024-04-25T20:02:54.182Z,100038.27
2024-04-25T20:05:44.104Z,100046.46
2024-04-25T20:08:34.107Z,100046.58
2024-04-25T20:11:23.914Z,100049.84
2024-04-25T20:14:13.597Z,100052.30
2024-04-25T20:17:06.530Z,100053.55
2024-04-25T20:20:14.459Z,100051.59
2024-04-25T20:23:04.191Z,100049.33
2024-04-25T20:25:53.931Z,100048.91
2024-04-25T20:28:43.536Z,100052.86
2024-04-25T20:31:33.077Z,100051.94
2024-04-25T20:34:23.508Z,100053.44
2024-04-25T20:37:13.190Z,100050.46
2024-04-25T20:40:03.167Z,100046.53
2024-04-25T20:42:54.268Z,100049.16
2024-04-25T20:45:44.500Z,100046.02
2024-04-25T20:48:35.603Z,100047.63
2024-04-25T20:51:25.965Z,100049.42
2024-04-25T20:54:16.473Z,100053.53
2024-04-25T20:57:07.478Z,100058.98
2024-04-25T20:59:58.130Z,100064.13
2024-04-25T21:03:15.691Z,100067.66
2024-04-25T21:06:10.659Z,100064.48
2024-04-25T21:09:17.807Z,100062.56
2024-04-25T21:12:08.521Z,100058.63
2024-04-25T21:14:58.282Z,100056.36
2024-04-25T21:17:48.220Z,100056.95
2024-04-25T21:20:38.317Z,100063.66
2024-04-25T21:23:27.842Z,100063.20
2024-04-25T21:26:17.968Z,100063.38
2024-04-25T21:29:07.840Z,100059.93
2024-04-25T21:31:58.457Z,100060.33
2024-04-25T21:34:51.404Z,100062.16
2024-04-25T21:37:41.708Z,100065.68
2024-04-25T21:40:32.413Z,100066.59
2024-04-25T21:43:21.741Z,100067.67
2024-04-25T21:46:11.203Z,100068.41
2024-04-25T21:49:00.906Z,100075.94
2024-04-25T21:51:51.072Z,100074.63
2024-04-25T21:54:40.684Z,100072.13
2024-04-25T21:57:30.143Z,100074.48
2024-04-25T22:00:20.166Z,100068.98
2024-04-25T22:03:09.722Z,100067.23
2024-04-25T22:05:59.291Z,100067.39
2024-04-25T22:08:49.224Z,100065.58
2024-04-25T22:11:38.875Z,100059.81
2024-04-25T22:14:28.604Z,100062.64
2024-04-25T22:17:18.148Z,100062.00
2024-04-25T22:20:09.015Z,100065.02
2024-04-25T22:22:58.653Z,100070.42
2024-04-25T22:25:48.181Z,100072.96
2024-04-25T22:28:37.835Z,100072.02
2024-04-25T22:31:27.518Z,100077.15
2024-04-25T22:34:17.086Z,100081.41
2024-04-25T22:37:06.777Z,100084.67
2024-04-25T22:39:56.253Z,100087.17
2024-04-25T22:42:45.874Z,100081.70
2024-04-25T22:45:41.432Z,100084.90
2024-04-25T22:48:31.663Z,100083.14
2024-04-25T22:51:21.192Z,100083.30
2024-04-25T22:54:11.260Z,100081.71
2024-04-25T22:57:00.564Z,100083.30
2024-04-25T22:59:50.145Z,100083.88
2024-04-25T23:02:39.933Z,100081.50
2024-04-25T23:05:34.841Z,100080.59
2024-04-25T23:08:25.132Z,100081.76
2024-04-25T23:11:17.834Z,100088.19
2024-04-25T23:14:08.498Z,100085.98
2024-04-25T23:16:57.997Z,100085.04
2024-04-25T23:19:48.969Z,100084.90
2024-04-25T23:22:38.144Z,100082.81
2024-04-25T23:25:27.685Z,100082.27
2024-04-25T23:28:17.176Z,100077.95
2024-04-25T23:31:06.864Z,100072.52
2024-04-25T23:33:56.637Z,100068.79
2024-04-25T23:36:46.299Z,100068.96
2024-04-25T23:39:38.953Z,100065.34
2024-04-25T23:42:28.466Z,100067.21
2024-04-25T23:45:18.046Z,100066.02
2024-04-25T23:48:09.128Z,100066.41
2024-04-25T23:51:03.430Z,100066.33
2024-04-25T23:53:59.152Z,100067.06
2024-04-25T23:56:48.976Z,100064.88
2024-04-25T23:59:41.259Z,100062.72
